createdAt,value
2023-01-08T00:01:31.152Z,78.83
2023-01-08T00:03:59.301Z,74.60
2023-01-08T00:06:27.469Z,79.33
2023-01-08T00:08:56.918Z,80.63
2023-01-08T00:11:25.128Z,81.67
2023-01-08T00:13:53.245Z,81.57
2023-01-08T00:16:21.984Z,80.63
2023-01-08T00:18:50.116Z,76.57
2023-01-08T00:21:18.349Z,77.17
2023-01-08T00:23:46.403Z,78.43
2023-01-08T00:26:15.912Z,78.80
2023-01-08T00:28:44.265Z,80.63
2023-01-08T00:31:14.139Z,82.63
2023-01-08T00:33:42.542Z,79.17
2023-01-08T00:36:13.036Z,75.53
2023-01-08T00:38:41.539Z,74.37
2023-01-08T00:41:09.780Z,78.77
2023-01-08T00:43:39.352Z,74.03
2023-01-08T00:46:08.344Z,75.03
2023-01-08T00:48:38.929Z,68.80
2023-01-08T00:51:08.295Z,71.67
2023-01-08T00:53:38.169Z,68.20
2023-01-08T00:56:08.644Z,68.70
2023-01-08T00:58:37.156Z,67.63
2023-01-08T01:01:13.303Z,66.63
2023-01-08T01:03:41.835Z,67.60
2023-01-08T01:06:10.394Z,69.37
2023-01-08T01:08:38.536Z,70.17
2023-01-08T01:11:09.979Z,72.67
2023-01-08T01:13:38.410Z,70.23
2023-01-08T01:16:07.120Z,67.87
2023-01-08T01:18:36.584Z,66.37
2023-01-08T01:21:11.327Z,67.77
2023-01-08T01:23:39.464Z,71.10
2023-01-08T01:26:07.561Z,68.27
2023-01-08T01:28:35.679Z,64.90
2023-01-08T01:31:04.642Z,62.53
2023-01-08T01:33:32.807Z,58.97
2023-01-08T01:36:03.639Z,58.40
2023-01-08T01:38:31.986Z,61.97
2023-01-08T01:41:00.253Z,60.97
2023-01-08T01:43:39.941Z,59.70
2023-01-08T01:46:19.627Z,58.50
2023-01-08T01:48:51.403Z,56.87
2023-01-08T01:51:21.731Z,56.43
2023-01-08T01:53:50.779Z,57.67
2023-01-08T01:56:19.261Z,57.13
2023-01-08T01:58:47.428Z,57.70
2023-01-08T02:01:15.880Z,58.13
2023-01-08T02:03:44.199Z,57.00
2023-01-08T02:06:21.328Z,57.57
2023-01-08T02:09:00.825Z,56.30
2023-01-08T02:11:38.580Z,55.37
2023-01-08T02:14:12.678Z,57.40
2023-01-08T02:16:47.743Z,56.97
2023-01-08T02:19:25.314Z,58.50
2023-01-08T02:22:04.015Z,57.80
2023-01-08T02:24:46.931Z,57.03
2023-01-08T02:27:18.846Z,57.83
2023-01-08T02:29:48.282Z,57.97
2023-01-08T02:32:16.553Z,58.57
2023-01-08T02:34:44.591Z,57.93
2023-01-08T02:37:12.760Z,56.23
2023-01-08T02:39:59.457Z,56.83
2023-01-08T02:42:38.066Z,57.13
2023-01-08T02:45:15.394Z,54.87
2023-01-08T02:47:47.518Z,56.50
2023-01-08T02:50:22.915Z,55.93
2023-01-08T02:53:11.290Z,56.80
2023-01-08T02:55:42.821Z,54.63
2023-01-08T02:58:13.129Z,55.67
2023-01-08T03:00:43.150Z,56.27
2023-01-08T03:03:15.956Z,55.80
2023-01-08T03:05:48.778Z,56.97
2023-01-08T03:08:19.145Z,55.67
2023-01-08T03:10:53.201Z,55.10
2023-01-08T03:13:27.851Z,55.47
2023-01-08T03:16:00.402Z,54.33
2023-01-08T03:18:34.258Z,56.03
2023-01-08T03:21:04.533Z,55.90
2023-01-08T03:23:34.790Z,56.23
2023-01-08T03:26:06.304Z,56.33
2023-01-08T03:28:40.196Z,56.53
2023-01-08T03:31:09.739Z,56.13
2023-01-08T03:33:39.501Z,55.40
2023-01-08T03:36:08.757Z,56.30
2023-01-08T03:38:41.858Z,55.73
2023-01-08T03:41:14.660Z,58.97
2023-01-08T03:43:44.165Z,58.60
2023-01-08T03:46:17.612Z,61.60
2023-01-08T03:48:47.077Z,59.23
2023-01-08T03:51:15.293Z,62.53
2023-01-08T03:53:43.715Z,61.57
2023-01-08T03:56:11.782Z,63.57
2023-01-08T03:58:42.919Z,60.37
2023-01-08T04:01:15.550Z,60.77
2023-01-08T04:03:43.738Z,63.87
2023-01-08T04:06:11.891Z,63.97
2023-01-08T04:08:39.993Z,62.27
2023-01-08T04:11:08.098Z,63.47
2023-01-08T04:13:36.151Z,62.20
2023-01-08T04:16:04.510Z,62.23
2023-01-08T04:18:34.084Z,61.57
2023-01-08T04:21:02.168Z,62.80
2023-01-08T04:23:30.210Z,61.87
2023-01-08T04:25:58.373Z,63.70
2023-01-08T04:28:26.487Z,62.40
2023-01-08T04:30:54.699Z,61.53
2023-01-08T04:33:22.783Z,61.53
2023-01-08T04:35:52.328Z,60.13
2023-01-08T04:38:20.430Z,61.17
2023-01-08T04:40:48.527Z,59.17
2023-01-08T04:43:16.703Z,60.67
2023-01-08T04:45:44.741Z,59.47
2023-01-08T04:48:12.795Z,59.90
2023-01-08T04:50:40.895Z,60.77
2023-01-08T04:53:10.363Z,62.07
2023-01-08T04:55:39.744Z,59.97
2023-01-08T04:58:07.999Z,57.07
2023-01-08T05:00:36.448Z,57.50
2023-01-08T05:03:04.588Z,56.83
2023-01-08T05:05:34.173Z,56.27
2023-01-08T05:08:02.433Z,57.33
2023-01-08T05:10:31.880Z,55.23
2023-01-08T05:13:00.600Z,56.73
2023-01-08T05:15:29.090Z,55.80
2023-01-08T05:18:01.254Z,55.50
2023-01-08T05:20:29.696Z,59.37
2023-01-08T05:22:58.671Z,55.97
2023-01-08T05:25:26.882Z,55.17
2023-01-08T05:27:56.328Z,56.37
2023-01-08T05:30:24.449Z,55.20
2023-01-08T05:32:52.581Z,55.17
2023-01-08T05:35:20.737Z,56.43
2023-01-08T05:37:48.799Z,56.70
2023-01-08T05:40:17.070Z,56.50
2023-01-08T05:42:45.247Z,56.10
2023-01-08T05:45:15.791Z,55.93
2023-01-08T05:47:44.027Z,56.23
2023-01-08T05:50:12.216Z,56.37
2023-01-08T05:52:40.562Z,56.80
2023-01-08T05:55:09.231Z,56.63
2023-01-08T05:57:37.402Z,58.83
2023-01-08T06:00:07.354Z,58.00
2023-01-08T06:02:41.049Z,58.97
2023-01-08T06:05:09.543Z,56.60
2023-01-08T06:07:37.614Z,57.20
2023-01-08T06:10:06.609Z,57.17
2023-01-08T06:12:34.651Z,54.93
2023-01-08T06:15:02.738Z,55.03
2023-01-08T06:17:30.844Z,54.77
2023-01-08T06:20:00.362Z,55.83
2023-01-08T06:22:28.613Z,54.33
2023-01-08T06:24:56.785Z,53.43
2023-01-08T06:27:24.890Z,55.43
2023-01-08T06:29:53.063Z,56.03
2023-01-08T06:32:21.102Z,55.83
2023-01-08T06:34:49.291Z,55.27
2023-01-08T06:37:18.871Z,58.53
2023-01-08T06:39:46.925Z,59.17
2023-01-08T06:42:15.023Z,62.47
2023-01-08T06:44:43.073Z,57.43
2023-01-08T06:47:11.169Z,57.73
2023-01-08T06:49:39.277Z,56.17
2023-01-08T06:52:07.612Z,55.60
2023-01-08T06:54:37.106Z,56.60
2023-01-08T06:57:05.224Z,54.87
2023-01-08T06:59:33.418Z,56.53
2023-01-08T07:02:01.545Z,56.17
2023-01-08T07:04:29.696Z,56.63
2023-01-08T07:06:57.831Z,55.87
2023-01-08T07:09:25.897Z,56.67
2023-01-08T07:11:55.360Z,55.93
2023-01-08T07:14:23.504Z,56.73
2023-01-08T07:16:51.601Z,56.07
2023-01-08T07:19:19.683Z,57.60
2023-01-08T07:21:47.855Z,56.20
2023-01-08T07:24:15.936Z,57.80
2023-01-08T07:26:43.981Z,56.83
2023-01-08T07:29:13.686Z,56.67
2023-01-08T07:31:41.920Z,55.77
2023-01-08T07:34:10.218Z,57.43
2023-01-08T07:36:38.302Z,55.17
2023-01-08T07:39:06.492Z,56.27
2023-01-08T07:41:34.586Z,55.00
2023-01-08T07:44:02.934Z,54.80
2023-01-08T07:46:32.496Z,54.33
2023-01-08T07:49:00.705Z,54.43
2023-01-08T07:51:29.909Z,52.47
2023-01-08T07:53:58.235Z,52.50
2023-01-08T07:56:26.453Z,52.73
2023-01-08T07:58:54.613Z,51.37
2023-01-08T08:01:22.795Z,51.83
2023-01-08T08:03:52.287Z,51.37
2023-01-08T08:06:20.353Z,51.97
2023-01-08T08:08:48.556Z,52.87
2023-01-08T08:11:16.648Z,51.53
2023-01-08T08:13:45.229Z,53.67
2023-01-08T08:16:13.688Z,51.43
2023-01-08T08:18:41.884Z,51.13
2023-01-08T08:21:11.362Z,51.53
2023-01-08T08:23:39.439Z,50.60
2023-01-08T08:26:07.942Z,51.23
2023-01-08T08:28:36.175Z,51.70
2023-01-08T08:31:04.315Z,51.17
2023-01-08T08:33:32.599Z,52.07
2023-01-08T08:36:00.737Z,51.93
2023-01-08T08:38:30.198Z,53.97
2023-01-08T08:40:58.386Z,53.30
2023-01-08T08:43:26.498Z,50.73
2023-01-08T08:45:56.738Z,49.50
2023-01-08T08:48:25.442Z,48.20
2023-01-08T08:50:53.638Z,48.30
2023-01-08T08:53:21.727Z,48.20
2023-01-08T08:55:51.141Z,47.87
2023-01-08T08:58:19.397Z,47.33
2023-01-08T09:00:47.540Z,48.27
2023-01-08T09:03:17.298Z,47.83
2023-01-08T09:05:45.463Z,47.97
2023-01-08T09:08:14.010Z,48.10
2023-01-08T09:10:43.639Z,48.00
2023-01-08T09:13:13.797Z,47.33
2023-01-08T09:15:42.046Z,47.00
2023-01-08T09:18:10.146Z,48.37
2023-01-08T09:20:38.254Z,44.87
2023-01-08T09:23:07.132Z,44.07
2023-01-08T09:25:35.313Z,44.03
2023-01-08T09:28:05.058Z,42.93
2023-01-08T09:30:34.685Z,43.33
2023-01-08T09:33:04.091Z,41.23
2023-01-08T09:35:32.960Z,40.60
2023-01-08T09:38:01.084Z,40.90
2023-01-08T09:40:35.255Z,40.37
2023-01-08T09:43:06.238Z,38.77
2023-01-08T09:45:39.068Z,38.23
2023-01-08T09:48:12.765Z,38.33
2023-01-08T09:50:41.106Z,37.90
2023-01-08T09:53:14.240Z,38.17
2023-01-08T09:55:43.809Z,37.23
2023-01-08T09:58:23.799Z,34.07
2023-01-08T10:00:54.108Z,32.93
2023-01-08T10:03:26.728Z,32.53
2023-01-08T10:05:54.998Z,32.83
2023-01-08T10:08:23.052Z,31.80
2023-01-08T10:10:51.305Z,30.70
2023-01-08T10:13:19.434Z,30.80
2023-01-08T10:15:48.161Z,31.57
2023-01-08T10:18:20.605Z,32.40
2023-01-08T10:20:48.662Z,32.87
2023-01-08T10:23:19.472Z,33.07
2023-01-08T10:25:53.301Z,36.77
2023-01-08T10:28:24.238Z,34.20
2023-01-08T10:30:53.710Z,32.17
2023-01-08T10:33:26.674Z,32.90
2023-01-08T10:35:59.702Z,33.93
2023-01-08T10:38:33.865Z,31.87
2023-01-08T10:41:04.779Z,31.97
2023-01-08T10:43:36.215Z,31.63
2023-01-08T10:46:07.992Z,30.30
2023-01-08T10:48:45.743Z,28.40
2023-01-08T10:51:16.947Z,28.60
2023-01-08T10:53:45.533Z,28.20
2023-01-08T10:56:22.313Z,26.80
2023-01-08T10:58:50.643Z,27.27
2023-01-08T11:01:23.631Z,26.93
2023-01-08T11:03:55.537Z,27.13
2023-01-08T11:06:27.646Z,26.97
2023-01-08T11:08:59.213Z,27.40
2023-01-08T11:11:34.744Z,27.17
2023-01-08T11:14:05.430Z,27.10
2023-01-08T11:16:36.755Z,26.83
2023-01-08T11:19:07.260Z,28.30
2023-01-08T11:21:37.072Z,27.80
2023-01-08T11:24:19.671Z,27.80
2023-01-08T11:26:53.015Z,27.83
2023-01-08T11:29:27.872Z,27.10
2023-01-08T11:32:05.350Z,28.60
2023-01-08T11:34:40.352Z,28.67
2023-01-08T11:37:15.236Z,27.90
2023-01-08T11:39:43.433Z,28.83
2023-01-08T11:42:28.320Z,27.87
2023-01-08T11:45:11.849Z,27.60
2023-01-08T11:48:06.388Z,26.70
2023-01-08T11:50:42.659Z,28.03
2023-01-08T11:53:21.769Z,27.40
2023-01-08T11:55:58.702Z,27.00
2023-01-08T11:58:42.356Z,26.37
2023-01-08T12:01:30.100Z,27.40
2023-01-08T12:04:17.037Z,27.17
2023-01-08T12:06:55.746Z,28.07
2023-01-08T12:09:37.167Z,25.03
2023-01-08T12:12:15.195Z,24.23
2023-01-08T12:14:55.732Z,22.33
2023-01-08T12:17:51.705Z,20.10
2023-01-08T12:20:31.928Z,17.33
2023-01-08T12:23:12.818Z,15.97
2023-01-08T12:26:06.504Z,14.00
2023-01-08T12:28:49.623Z,14.57
2023-01-08T12:31:34.279Z,13.47
2023-01-08T12:34:08.897Z,13.33
2023-01-08T12:36:41.282Z,12.68
2023-01-08T12:39:17.133Z,12.65
2023-01-08T12:41:48.150Z,12.50
2023-01-08T12:44:23.428Z,13.15
2023-01-08T12:46:54.558Z,12.68
2023-01-08T12:49:30.753Z,12.27
2023-01-08T12:52:08.449Z,13.20
2023-01-08T12:54:50.690Z,13.93
2023-01-08T12:57:26.510Z,12.33
2023-01-08T13:00:02.585Z,12.23
2023-01-08T13:02:40.279Z,12.13
2023-01-08T13:05:14.293Z,14.20
2023-01-08T13:07:46.326Z,13.17
2023-01-08T13:10:29.988Z,12.70
2023-01-08T13:12:59.069Z,13.07
2023-01-08T13:15:29.428Z,13.50
2023-01-08T13:18:02.260Z,13.47
2023-01-08T13:20:32.186Z,11.77
2023-01-08T13:23:02.711Z,13.73
2023-01-08T13:25:35.540Z,12.77
2023-01-08T13:28:19.829Z,13.57
2023-01-08T13:30:49.265Z,14.93
2023-01-08T13:33:29.868Z,17.50
2023-01-08T13:36:18.142Z,19.20
2023-01-08T13:38:46.705Z,20.87
2023-01-08T13:41:30.217Z,21.93
2023-01-08T13:44:02.739Z,21.40
2023-01-08T13:46:31.896Z,21.57
2023-01-08T13:49:03.334Z,22.33
2023-01-08T13:51:35.366Z,21.50
2023-01-08T13:54:16.899Z,21.07
2023-01-08T13:56:48.925Z,23.07
2023-01-08T13:59:29.328Z,23.27
2023-01-08T14:02:00.193Z,22.80
2023-01-08T14:04:29.168Z,24.50
2023-01-08T14:07:11.989Z,25.07
2023-01-08T14:09:40.125Z,25.90
2023-01-08T14:12:15.329Z,24.80
2023-01-08T14:14:48.858Z,25.73
2023-01-08T14:17:18.372Z,26.97
2023-01-08T14:19:47.024Z,26.37
2023-01-08T14:22:20.464Z,27.63
2023-01-08T14:24:55.487Z,27.17
2023-01-08T14:27:27.418Z,27.60
2023-01-08T14:29:56.022Z,27.80
2023-01-08T14:32:25.596Z,29.27
2023-01-08T14:34:55.496Z,29.07
2023-01-08T14:37:23.827Z,28.40
2023-01-08T14:39:54.659Z,30.00
2023-01-08T14:42:50.155Z,31.40
2023-01-08T14:45:21.517Z,32.40
2023-01-08T14:47:51.812Z,31.63
2023-01-08T14:50:24.819Z,32.40
2023-01-08T14:52:54.302Z,34.13
2023-01-08T14:55:22.875Z,34.87
2023-01-08T14:57:55.240Z,35.87
2023-01-08T15:00:26.846Z,36.97
2023-01-08T15:02:55.177Z,37.00
2023-01-08T15:05:28.941Z,39.10
2023-01-08T15:08:02.923Z,38.17
2023-01-08T15:10:36.146Z,40.03
2023-01-08T15:13:08.558Z,43.17
2023-01-08T15:15:54.761Z,46.23
2023-01-08T15:18:23.393Z,44.27
2023-01-08T15:20:52.558Z,44.43
2023-01-08T15:23:27.760Z,46.40
2023-01-08T15:25:56.820Z,45.23
2023-01-08T15:28:26.894Z,46.20
2023-01-08T15:30:55.321Z,45.97
2023-01-08T15:33:25.156Z,48.43
2023-01-08T15:35:53.311Z,53.17
2023-01-08T15:38:23.821Z,47.80
2023-01-08T15:40:53.340Z,46.80
2023-01-08T15:43:20.524Z,49.20
2023-01-08T15:45:51.314Z,49.13
2023-01-08T15:48:19.567Z,47.97
2023-01-08T15:50:47.696Z,49.03
2023-01-08T15:53:19.201Z,49.87
2023-01-08T15:55:47.502Z,51.97
2023-01-08T15:58:16.998Z,50.43
2023-01-08T16:00:47.288Z,51.50
2023-01-08T16:03:17.401Z,51.23
2023-01-08T16:05:45.606Z,53.43
2023-01-08T16:08:13.816Z,52.70
2023-01-08T16:10:43.165Z,53.03
2023-01-08T16:13:12.318Z,54.57
2023-01-08T16:15:41.025Z,53.00
2023-01-08T16:18:09.171Z,52.47
2023-01-08T16:20:39.252Z,52.83
2023-01-08T16:23:07.504Z,54.13
2023-01-08T16:25:36.189Z,54.13
2023-01-08T16:28:04.386Z,54.57
2023-01-08T16:30:32.567Z,55.73
2023-01-08T16:33:00.618Z,54.13
2023-01-08T16:35:28.741Z,54.13
2023-01-08T16:37:58.229Z,55.90
2023-01-08T16:40:26.325Z,57.33
2023-01-08T16:42:54.403Z,55.87
2023-01-08T16:45:22.496Z,57.70
2023-01-08T16:47:50.570Z,59.07
2023-01-08T16:50:18.783Z,60.77
2023-01-08T16:52:46.842Z,60.53
2023-01-08T16:55:16.264Z,59.97
2023-01-08T16:57:44.298Z,62.77
2023-01-08T17:00:13.774Z,60.37
2023-01-08T17:02:41.880Z,60.03
2023-01-08T17:05:10.679Z,63.50
2023-01-08T17:07:38.797Z,63.43
2023-01-08T17:10:08.066Z,62.47
2023-01-08T17:12:37.581Z,59.40
2023-01-08T17:15:06.504Z,61.57
2023-01-08T17:17:34.579Z,58.97
2023-01-08T17:20:02.807Z,58.97
2023-01-08T17:22:30.936Z,62.70
2023-01-08T17:24:59.009Z,62.37
2023-01-08T17:27:27.102Z,66.53
2023-01-08T17:29:56.596Z,66.87
2023-01-08T17:32:26.220Z,64.73
2023-01-08T17:34:54.705Z,124.80
2023-01-08T17:37:22.864Z,64.47
2023-01-08T17:39:50.934Z,79.93
2023-01-08T17:42:28.422Z,65.27
2023-01-08T17:45:01.369Z,63.07
2023-01-08T17:47:29.632Z,63.83
2023-01-08T17:49:58.358Z,59.80
2023-01-08T17:52:26.909Z,61.07
2023-01-08T17:54:55.044Z,60.10
2023-01-08T17:57:23.438Z,58.57
2023-01-08T17:59:51.539Z,58.57
2023-01-08T18:02:21.416Z,61.00
2023-01-08T18:04:49.644Z,73.40
2023-01-08T18:07:18.275Z,73.57
2023-01-08T18:09:46.389Z,76.33
2023-01-08T18:12:14.498Z,76.47
2023-01-08T18:14:44.137Z,72.80
2023-01-08T18:17:12.405Z,71.13
2023-01-08T18:19:42.078Z,72.30
2023-01-08T18:22:10.527Z,72.40
2023-01-08T18:24:38.614Z,76.37
2023-01-08T18:27:07.693Z,73.10
2023-01-08T18:29:35.865Z,72.33
2023-01-08T18:32:04.032Z,73.23
2023-01-08T18:34:32.196Z,72.93
2023-01-08T18:37:01.727Z,76.47
2023-01-08T18:39:31.003Z,67.30
2023-01-08T18:42:24.684Z,63.67
2023-01-08T18:44:54.818Z,63.33
2023-01-08T18:47:24.073Z,70.60
2023-01-08T18:49:53.456Z,72.70
2023-01-08T18:52:23.627Z,72.30
2023-01-08T18:54:53.250Z,72.63
2023-01-08T18:57:21.382Z,73.00
2023-01-08T18:59:50.057Z,73.23
2023-01-08T19:02:21.555Z,74.90
2023-01-08T19:04:49.937Z,77.93
2023-01-08T19:07:18.620Z,75.87
2023-01-08T19:09:48.122Z,80.60
2023-01-08T19:12:16.299Z,80.23
2023-01-08T19:14:46.337Z,77.47
2023-01-08T19:17:15.186Z,75.37
2023-01-08T19:19:43.312Z,77.70
2023-01-08T19:22:11.437Z,77.23
2023-01-08T19:24:39.589Z,76.20
2023-01-08T19:27:09.056Z,78.37
2023-01-08T19:29:37.359Z,78.00
2023-01-08T19:32:07.007Z,73.97
2023-01-08T19:34:35.187Z,79.30
2023-01-08T19:37:03.420Z,76.50
2023-01-08T19:39:31.684Z,77.70
2023-01-08T19:42:17.921Z,87.93
2023-01-08T19:44:47.474Z,85.93
2023-01-08T19:47:15.708Z,81.60
2023-01-08T19:49:47.753Z,85.60
2023-01-08T19:52:16.024Z,84.00
2023-01-08T19:54:44.316Z,83.20
2023-01-08T19:57:12.475Z,81.77
2023-01-08T19:59:40.749Z,83.33
2023-01-08T20:02:11.526Z,80.83
2023-01-08T20:04:40.933Z,86.10
2023-01-08T20:07:09.061Z,85.80
2023-01-08T20:09:38.556Z,86.83
2023-01-08T20:12:07.362Z,79.73
2023-01-08T20:14:35.841Z,79.20
2023-01-08T20:17:04.104Z,80.13
2023-01-08T20:19:34.474Z,81.87
2023-01-08T20:22:02.689Z,89.60
2023-01-08T20:24:31.005Z,84.50
2023-01-08T20:26:59.239Z,83.27
2023-01-08T20:29:27.482Z,85.77
2023-01-08T20:31:57.547Z,89.43
2023-01-08T20:34:26.699Z,91.27
2023-01-08T20:36:57.380Z,91.93
2023-01-08T20:39:25.791Z,89.30
2023-01-08T20:42:03.368Z,90.50
2023-01-08T20:44:32.456Z,94.20
2023-01-08T20:47:00.808Z,95.83
2023-01-08T20:49:29.740Z,98.90
2023-01-08T20:52:00.414Z,93.90
2023-01-08T20:54:30.027Z,97.63
2023-01-08T20:56:59.141Z,101.23
2023-01-08T20:59:28.352Z,103.77
2023-01-08T21:01:57.305Z,101.47
2023-01-08T21:04:25.977Z,102.93
2023-01-08T21:06:54.135Z,107.27
2023-01-08T21:09:23.644Z,107.07
2023-01-08T21:11:51.954Z,104.73
2023-01-08T21:14:20.248Z,111.10
2023-01-08T21:16:48.691Z,108.50
2023-01-08T21:19:16.907Z,108.20
2023-01-08T21:21:45.858Z,105.37
2023-01-08T21:24:15.376Z,112.40
2023-01-08T21:26:46.054Z,118.00
2023-01-08T21:29:14.857Z,114.93
2023-01-08T21:31:43.362Z,112.30
2023-01-08T21:34:11.889Z,116.43
2023-01-08T21:36:40.228Z,115.77
2023-01-08T21:39:08.837Z,115.37
2023-01-08T21:41:54.701Z,117.20
2023-01-08T21:44:43.815Z,115.87
2023-01-08T21:47:14.971Z,117.23
2023-01-08T21:49:43.063Z,116.37
2023-01-08T21:52:28.725Z,113.17
2023-01-08T21:54:58.229Z,114.43
2023-01-08T21:57:28.120Z,114.77
2023-01-08T21:59:58.263Z,112.27
2023-01-08T22:02:26.785Z,110.60
2023-01-08T22:04:56.514Z,111.50
2023-01-08T22:07:25.456Z,112.17
2023-01-08T22:09:53.787Z,106.03
2023-01-08T22:12:23.082Z,105.20
2023-01-08T22:14:53.548Z,103.83
2023-01-08T22:17:23.872Z,100.57
2023-01-08T22:19:52.549Z,104.23
2023-01-08T22:22:20.642Z,106.00
2023-01-08T22:24:48.745Z,97.53
2023-01-08T22:27:17.251Z,102.87
2023-01-08T22:29:45.360Z,104.57
2023-01-08T22:32:13.479Z,93.40
2023-01-08T22:34:43.055Z,92.53
2023-01-08T22:37:11.243Z,93.37
2023-01-08T22:39:39.344Z,91.57
2023-01-08T22:42:07.496Z,90.83
2023-01-08T22:44:35.587Z,87.33
2023-01-08T22:47:03.662Z,85.43
2023-01-08T22:49:31.789Z,85.60
2023-01-08T22:52:01.399Z,83.63
2023-01-08T22:54:29.596Z,81.80
2023-01-08T22:56:57.684Z,80.57
2023-01-08T22:59:25.765Z,82.37
2023-01-08T23:01:53.883Z,79.90
2023-01-08T23:04:23.302Z,81.60
2023-01-08T23:06:51.402Z,79.30
2023-01-08T23:09:20.841Z,82.50
2023-01-08T23:11:48.929Z,81.77
2023-01-08T23:14:17.103Z,81.17
2023-01-08T23:16:45.558Z,76.10
2023-01-08T23:19:14.083Z,77.00
2023-01-08T23:21:42.155Z,77.47
2023-01-08T23:24:13.406Z,74.73
2023-01-08T23:26:43.323Z,76.30
2023-01-08T23:29:11.745Z,73.70
2023-01-08T23:31:40.458Z,71.77
2023-01-08T23:34:08.845Z,70.57
2023-01-08T23:36:37.568Z,69.63
2023-01-08T23:39:06.393Z,68.67
2023-01-08T23:41:35.166Z,70.70
2023-01-08T23:44:07.344Z,69.03
2023-01-08T23:46:35.864Z,70.00
2023-01-08T23:49:04.060Z,67.07
2023-01-08T23:51:32.319Z,68.03
2023-01-08T23:54:00.736Z,67.00
2023-01-08T23:56:29.284Z,64.80
2023-01-08T23:58:59.092Z,65.37
